createdAt,value
2022-08-17T00:00:43.901Z,71.50
2022-08-17T00:03:13.573Z,71.51
2022-08-17T00:05:44.169Z,71.16
2022-08-17T00:08:12.410Z,71.38
2022-08-17T00:10:44.103Z,70.93
2022-08-17T00:13:14.230Z,71.38
2022-08-17T00:15:41.968Z,70.83
2022-08-17T00:19:01.662Z,71.00
2022-08-17T00:20:59.545Z,71.00
2022-08-17T00:23:28.645Z,71.10
2022-08-17T00:25:56.375Z,70.77
2022-08-17T00:28:23.946Z,70.71
2022-08-17T00:30:53.551Z,70.99
2022-08-17T00:33:25.950Z,71.00
2022-08-17T00:35:54.185Z,71.61
2022-08-17T00:38:22.855Z,71.86
2022-08-17T00:40:55.968Z,71.81
2022-08-17T00:43:31.775Z,71.31
2022-08-17T00:46:00.283Z,71.24
2022-08-17T00:48:30.889Z,70.45
2022-08-17T00:51:03.241Z,70.27
2022-08-17T00:53:32.796Z,70.22
2022-08-17T00:56:02.045Z,69.85
2022-08-17T00:58:35.800Z,70.42
2022-08-17T01:01:05.742Z,70.78
2022-08-17T01:03:36.265Z,70.41
2022-08-17T01:06:04.664Z,70.57
2022-08-17T01:08:33.311Z,70.61
2022-08-17T01:11:03.095Z,70.71
2022-08-17T01:13:40.411Z,70.52
2022-08-17T01:16:16.862Z,69.87
2022-08-17T01:18:48.325Z,70.08
2022-08-17T01:21:20.029Z,70.09
2022-08-17T01:23:49.079Z,69.99
2022-08-17T01:26:17.009Z,70.94
2022-08-17T01:28:53.792Z,70.86
2022-08-17T01:31:24.968Z,71.29
2022-08-17T01:33:52.737Z,71.82
2022-08-17T01:36:20.950Z,72.37
2022-08-17T01:38:50.536Z,72.43
2022-08-17T01:41:19.575Z,72.46
2022-08-17T01:43:50.515Z,72.41
2022-08-17T01:46:23.300Z,72.75
2022-08-17T01:48:51.527Z,73.25
2022-08-17T01:51:19.958Z,73.16
2022-08-17T01:53:51.957Z,73.36
2022-08-17T01:56:22.865Z,73.80
2022-08-17T01:58:51.021Z,74.03
2022-08-17T02:01:20.696Z,74.09
2022-08-17T02:03:59.153Z,74.73
2022-08-17T02:06:29.015Z,74.84
2022-08-17T02:09:03.271Z,74.93
2022-08-17T02:11:32.829Z,74.96
2022-08-17T02:14:02.747Z,75.32
2022-08-17T02:16:37.063Z,75.10
2022-08-17T02:19:08.258Z,75.34
2022-08-17T02:21:36.793Z,74.83
2022-08-17T02:24:06.509Z,75.19
2022-08-17T02:26:34.386Z,75.26
2022-08-17T02:29:02.337Z,75.38
2022-08-17T02:31:31.094Z,75.34
2022-08-17T02:34:04.072Z,74.83
2022-08-17T02:36:33.980Z,74.83
2022-08-17T02:39:02.389Z,74.78
2022-08-17T02:41:31.701Z,74.63
2022-08-17T02:43:59.756Z,74.94
2022-08-17T02:46:28.386Z,74.70
2022-08-17T02:48:56.397Z,75.33
2022-08-17T02:51:24.346Z,75.33
2022-08-17T02:53:52.621Z,75.47
2022-08-17T02:56:41.864Z,75.31
2022-08-17T02:59:09.818Z,75.80
2022-08-17T03:01:37.847Z,76.28
2022-08-17T03:04:05.964Z,75.44
2022-08-17T03:06:33.968Z,75.63
2022-08-17T03:09:01.873Z,76.18
2022-08-17T03:11:29.867Z,76.57
2022-08-17T03:13:59.259Z,77.19
2022-08-17T03:16:27.235Z,77.23
2022-08-17T03:18:55.368Z,77.36
2022-08-17T03:21:23.308Z,77.15
2022-08-17T03:23:54.514Z,77.75
2022-08-17T03:26:22.685Z,78.31
2022-08-17T03:28:50.395Z,78.26
2022-08-17T03:31:20.637Z,78.24
2022-08-17T03:33:48.408Z,77.42
2022-08-17T03:36:16.119Z,77.01
2022-08-17T03:38:43.858Z,76.58
2022-08-17T03:41:13.720Z,76.83
2022-08-17T03:43:41.370Z,77.04
2022-08-17T03:46:34.778Z,76.99
2022-08-17T03:49:22.739Z,76.85
2022-08-17T03:52:08.105Z,77.09
2022-08-17T03:54:53.434Z,77.23
2022-08-17T03:57:21.292Z,77.41
2022-08-17T03:59:49.430Z,77.46
2022-08-17T04:02:19.251Z,77.38
2022-08-17T04:04:50.701Z,77.86
2022-08-17T04:07:18.861Z,78.15
2022-08-17T04:09:46.439Z,77.98
2022-08-17T04:12:16.229Z,77.79
2022-08-17T04:14:53.619Z,77.21
2022-08-17T04:17:24.312Z,77.38
2022-08-17T04:19:53.930Z,77.49
2022-08-17T04:22:32.137Z,77.42
2022-08-17T04:25:04.700Z,77.42
2022-08-17T04:27:32.337Z,77.84
2022-08-17T04:30:00.136Z,77.61
2022-08-17T04:32:59.307Z,77.37
2022-08-17T04:35:20.863Z,77.64
2022-08-17T04:37:48.570Z,77.43
2022-08-17T04:40:34.161Z,77.50
2022-08-17T04:43:03.351Z,77.36
2022-08-17T04:45:32.125Z,77.12
2022-08-17T04:48:00.699Z,77.73
2022-08-17T04:50:29.720Z,77.85
2022-08-17T04:52:57.657Z,77.39
2022-08-17T04:55:25.504Z,76.84
2022-08-17T04:57:53.200Z,78.10
2022-08-17T05:00:21.098Z,78.02
2022-08-17T05:02:51.170Z,78.07
2022-08-17T05:05:20.089Z,78.62
2022-08-17T05:07:52.350Z,79.17
2022-08-17T05:10:20.147Z,79.04
2022-08-17T05:12:48.854Z,79.65
2022-08-17T05:15:16.705Z,79.84
2022-08-17T05:17:44.873Z,79.96
2022-08-17T05:20:12.702Z,80.16
2022-08-17T05:22:51.101Z,80.43
2022-08-17T05:25:24.962Z,80.42
2022-08-17T05:27:54.244Z,80.01
2022-08-17T05:30:22.172Z,80.19
2022-08-17T05:32:57.146Z,79.54
2022-08-17T05:35:25.423Z,80.15
2022-08-17T05:37:54.589Z,79.73
2022-08-17T05:40:25.864Z,79.06
2022-08-17T05:42:54.185Z,79.27
2022-08-17T05:45:46.052Z,79.08
2022-08-17T05:48:10.322Z,78.89
2022-08-17T05:50:50.427Z,79.00
2022-08-17T05:53:23.985Z,79.07
2022-08-17T05:55:57.863Z,78.43
2022-08-17T05:58:32.927Z,78.69
2022-08-17T06:01:05.068Z,79.16
2022-08-17T06:03:41.478Z,79.30
2022-08-17T06:06:16.942Z,79.15
2022-08-17T06:08:51.727Z,77.70
2022-08-17T06:11:25.022Z,78.27
2022-08-17T06:14:05.335Z,78.68
2022-08-17T06:16:37.220Z,79.06
2022-08-17T06:19:07.527Z,79.28
2022-08-17T06:21:38.799Z,79.37
2022-08-17T06:24:24.762Z,79.63
2022-08-17T06:26:53.556Z,79.78
2022-08-17T06:29:43.996Z,80.08
2022-08-17T06:32:12.874Z,79.76
2022-08-17T06:34:41.327Z,80.68
2022-08-17T06:37:21.202Z,79.77
2022-08-17T06:39:57.276Z,79.52
2022-08-17T06:43:02.780Z,80.17
2022-08-17T06:45:25.018Z,80.81
2022-08-17T06:47:57.552Z,81.21
2022-08-17T06:50:31.925Z,81.05
2022-08-17T06:53:02.460Z,80.93
2022-08-17T06:55:38.074Z,81.20
2022-08-17T06:58:11.984Z,80.48
2022-08-17T07:00:47.043Z,80.78
2022-08-17T07:03:18.914Z,80.01
2022-08-17T07:05:49.602Z,80.09
2022-08-17T07:08:22.107Z,79.56
2022-08-17T07:10:57.748Z,79.13
2022-08-17T07:13:33.994Z,79.66
2022-08-17T07:16:09.317Z,79.29
2022-08-17T07:18:37.572Z,79.50
2022-08-17T07:21:17.487Z,80.56
2022-08-17T07:23:57.234Z,80.76
2022-08-17T07:26:26.230Z,81.59
2022-08-17T07:28:56.137Z,81.80
2022-08-17T07:31:25.311Z,82.12
2022-08-17T07:34:02.910Z,82.94
2022-08-17T07:36:33.739Z,82.14
2022-08-17T07:39:03.045Z,81.67
2022-08-17T07:41:53.439Z,81.20
2022-08-17T07:44:23.907Z,84.15
2022-08-17T07:47:09.904Z,83.92
2022-08-17T07:49:39.567Z,84.81
2022-08-17T07:52:48.062Z,84.88
2022-08-17T07:54:57.216Z,83.24
2022-08-17T07:57:33.403Z,82.83
2022-08-17T08:00:26.636Z,80.58
2022-08-17T08:03:04.457Z,80.13
2022-08-17T08:05:50.528Z,79.63
2022-08-17T08:08:38.374Z,79.23
2022-08-17T08:11:09.937Z,78.71
2022-08-17T08:13:45.029Z,78.02
2022-08-17T08:16:25.924Z,79.00
2022-08-17T08:18:57.505Z,79.29
2022-08-17T08:21:39.260Z,79.46
2022-08-17T08:24:17.817Z,79.84
2022-08-17T08:26:48.840Z,80.05
2022-08-17T08:29:28.249Z,79.33
2022-08-17T08:32:03.467Z,78.36
2022-08-17T08:34:46.324Z,78.47
2022-08-17T08:37:35.711Z,78.23
2022-08-17T08:40:11.014Z,78.71
2022-08-17T08:42:45.141Z,78.15
2022-08-17T08:45:17.365Z,77.86
2022-08-17T08:48:05.072Z,78.52
2022-08-17T08:50:40.331Z,78.29
2022-08-17T08:53:18.804Z,78.42
2022-08-17T08:55:53.546Z,78.58
2022-08-17T08:58:31.632Z,77.22
2022-08-17T09:01:17.634Z,77.19
2022-08-17T09:04:25.121Z,77.19
2022-08-17T09:07:00.596Z,77.71
2022-08-17T09:09:37.040Z,77.74
2022-08-17T09:12:09.687Z,76.30
2022-08-17T09:14:46.694Z,75.53
2022-08-17T09:17:19.164Z,75.20
2022-08-17T09:19:50.189Z,75.46
2022-08-17T09:22:26.587Z,74.29
2022-08-17T09:25:00.883Z,73.93
2022-08-17T09:27:32.309Z,74.04
2022-08-17T09:30:07.842Z,73.35
2022-08-17T09:32:40.567Z,71.81
2022-08-17T09:35:19.977Z,71.02
2022-08-17T09:37:54.626Z,71.12
2022-08-17T09:40:25.975Z,70.59
2022-08-17T09:42:57.443Z,71.12
2022-08-17T09:45:33.144Z,70.86
2022-08-17T09:48:07.556Z,71.48
2022-08-17T09:51:03.266Z,71.15
2022-08-17T09:53:31.759Z,71.75
2022-08-17T09:56:08.044Z,71.78
2022-08-17T09:58:45.658Z,70.96
2022-08-17T10:01:21.013Z,70.45
2022-08-17T10:04:20.519Z,69.70
2022-08-17T10:06:52.833Z,69.93
2022-08-17T10:09:37.761Z,70.35
2022-08-17T10:12:21.326Z,70.80
2022-08-17T10:14:58.283Z,69.83
2022-08-17T10:17:40.674Z,68.71
2022-08-17T10:20:12.934Z,67.58
2022-08-17T10:23:02.072Z,67.45
2022-08-17T10:25:54.689Z,67.11
2022-08-17T10:28:29.415Z,66.34
2022-08-17T10:31:23.210Z,65.78
2022-08-17T10:33:53.819Z,66.01
2022-08-17T10:36:27.445Z,66.46
2022-08-17T10:39:04.989Z,65.96
2022-08-17T10:41:40.435Z,65.38
2022-08-17T10:44:39.682Z,64.78
2022-08-17T10:47:07.946Z,65.38
2022-08-17T10:49:36.982Z,64.78
2022-08-17T10:52:45.136Z,65.08
2022-08-17T10:55:14.895Z,63.76
2022-08-17T10:57:44.746Z,62.23
2022-08-17T11:00:17.000Z,61.65
2022-08-17T11:02:50.822Z,60.71
2022-08-17T11:05:44.075Z,59.89
2022-08-17T11:08:38.428Z,58.97
2022-08-17T11:11:39.696Z,58.28
2022-08-17T11:14:17.113Z,58.27
2022-08-17T11:16:53.967Z,58.70
2022-08-17T11:19:51.554Z,58.50
2022-08-17T11:22:45.317Z,59.02
2022-08-17T11:25:17.213Z,59.26
2022-08-17T11:27:49.105Z,59.22
2022-08-17T11:30:46.873Z,59.52
2022-08-17T11:33:54.390Z,59.19
2022-08-17T11:36:49.626Z,59.19
2022-08-17T11:39:41.924Z,58.97
2022-08-17T11:42:25.442Z,59.38
2022-08-17T11:44:55.110Z,59.45
2022-08-17T11:48:02.473Z,59.13
2022-08-17T11:51:01.563Z,59.32
2022-08-17T11:54:31.106Z,59.14
2022-08-17T11:56:52.793Z,58.82
2022-08-17T12:00:10.413Z,59.13
2022-08-17T12:02:48.282Z,58.80
2022-08-17T12:05:40.064Z,58.87
2022-08-17T12:08:17.771Z,58.56
2022-08-17T12:11:00.538Z,58.62
2022-08-17T12:13:38.543Z,58.95
2022-08-17T12:16:10.059Z,58.41
2022-08-17T12:18:42.127Z,58.86
2022-08-17T12:21:30.147Z,58.63
2022-08-17T12:24:05.329Z,58.30
2022-08-17T12:26:34.673Z,58.57
2022-08-17T12:29:05.566Z,58.32
2022-08-17T12:31:36.816Z,57.63
2022-08-17T12:34:06.347Z,57.06
2022-08-17T12:36:34.624Z,56.63
2022-08-17T12:39:14.481Z,56.71
2022-08-17T12:41:51.292Z,56.75
2022-08-17T12:44:21.407Z,57.24
2022-08-17T12:46:54.062Z,56.86
2022-08-17T12:49:30.202Z,56.68
2022-08-17T12:52:14.297Z,56.23
2022-08-17T12:54:48.021Z,56.24
2022-08-17T12:57:18.651Z,56.63
2022-08-17T12:59:51.260Z,56.36
2022-08-17T13:02:33.059Z,55.87
2022-08-17T13:05:03.116Z,56.25
2022-08-17T13:07:35.626Z,56.01
2022-08-17T13:10:05.490Z,55.20
2022-08-17T13:12:35.800Z,55.23
2022-08-17T13:15:04.580Z,55.43
2022-08-17T13:17:35.947Z,54.58
2022-08-17T13:20:07.260Z,54.71
2022-08-17T13:22:35.101Z,54.92
2022-08-17T13:25:07.090Z,54.73
2022-08-17T13:27:35.160Z,54.18
2022-08-17T13:30:05.925Z,54.18
2022-08-17T13:32:44.157Z,54.22
2022-08-17T13:35:50.328Z,54.67
2022-08-17T13:38:36.588Z,54.01
2022-08-17T13:41:07.429Z,54.25
2022-08-17T13:43:41.033Z,53.75
2022-08-17T13:46:10.928Z,54.29
2022-08-17T13:48:39.040Z,54.14
2022-08-17T13:51:24.789Z,54.64
2022-08-17T13:54:07.634Z,53.55
2022-08-17T13:56:47.166Z,53.85
2022-08-17T13:59:18.228Z,53.79
2022-08-17T14:02:07.449Z,53.48
2022-08-17T14:04:35.931Z,52.82
2022-08-17T14:07:27.769Z,52.44
2022-08-17T14:10:02.863Z,52.81
2022-08-17T14:12:33.381Z,51.94
2022-08-17T14:15:02.027Z,51.67
2022-08-17T14:17:34.989Z,51.94
2022-08-17T14:20:07.444Z,51.43
2022-08-17T14:22:40.634Z,51.75
2022-08-17T14:25:12.065Z,51.74
2022-08-17T14:27:51.970Z,51.59
2022-08-17T14:30:22.791Z,50.96
2022-08-17T14:32:52.165Z,51.12
2022-08-17T14:35:22.427Z,51.12
2022-08-17T14:37:52.334Z,50.50
2022-08-17T14:40:24.579Z,51.20
2022-08-17T14:42:54.174Z,50.85
2022-08-17T14:45:27.019Z,51.04
2022-08-17T14:48:00.648Z,50.98
2022-08-17T14:50:28.867Z,50.94
2022-08-17T14:52:59.139Z,50.84
2022-08-17T14:55:29.835Z,50.91
2022-08-17T14:57:57.918Z,50.55
2022-08-17T15:00:26.949Z,50.17
2022-08-17T15:02:56.684Z,50.47
2022-08-17T15:05:26.406Z,51.18
2022-08-17T15:07:54.587Z,51.01
2022-08-17T15:10:25.866Z,50.83
2022-08-17T15:12:54.004Z,51.71
2022-08-17T15:15:21.956Z,52.27
2022-08-17T15:17:56.247Z,52.39
2022-08-17T15:20:26.344Z,52.33
2022-08-17T15:22:55.095Z,54.02
2022-08-17T15:25:25.412Z,54.14
2022-08-17T15:27:54.069Z,54.58
2022-08-17T15:30:22.524Z,54.59
2022-08-17T15:32:54.987Z,54.13
2022-08-17T15:35:28.748Z,54.53
2022-08-17T15:38:09.816Z,54.31
2022-08-17T15:40:42.650Z,54.51
2022-08-17T15:43:27.332Z,54.55
2022-08-17T15:46:00.159Z,54.15
2022-08-17T15:48:40.798Z,54.40
2022-08-17T15:51:13.950Z,54.50
2022-08-17T15:53:42.491Z,54.51
2022-08-17T15:56:12.760Z,54.64
2022-08-17T15:58:46.587Z,54.75
2022-08-17T16:01:18.733Z,54.74
2022-08-17T16:04:06.753Z,54.43
2022-08-17T16:06:35.845Z,54.86
2022-08-17T16:09:03.814Z,54.56
2022-08-17T16:11:33.044Z,55.02
2022-08-17T16:14:00.971Z,55.75
2022-08-17T16:16:31.155Z,55.12
2022-08-17T16:18:59.197Z,54.60
2022-08-17T16:21:29.505Z,55.32
2022-08-17T16:24:04.501Z,54.54
2022-08-17T16:26:35.205Z,54.23
2022-08-17T16:29:06.704Z,54.12
2022-08-17T16:31:35.957Z,53.66
2022-08-17T16:34:17.114Z,53.51
2022-08-17T16:36:55.242Z,53.68
2022-08-17T16:39:25.526Z,54.34
2022-08-17T16:41:56.376Z,53.64
2022-08-17T16:44:25.874Z,53.41
2022-08-17T16:46:54.028Z,53.69
2022-08-17T16:49:35.556Z,53.39
2022-08-17T16:52:05.957Z,53.47
2022-08-17T16:54:35.496Z,53.33
2022-08-17T16:57:05.614Z,53.36
2022-08-17T16:59:41.961Z,53.03
2022-08-17T17:02:15.668Z,53.33
2022-08-17T17:04:49.405Z,53.68
2022-08-17T17:07:44.793Z,53.38
2022-08-17T17:10:16.770Z,52.89
2022-08-17T17:13:01.429Z,52.71
2022-08-17T17:15:41.399Z,52.99
2022-08-17T17:18:12.954Z,52.87
2022-08-17T17:20:45.901Z,53.01
2022-08-17T17:23:24.649Z,52.96
2022-08-17T17:25:56.805Z,53.20
2022-08-17T17:28:30.438Z,53.18
2022-08-17T17:31:02.322Z,53.15
2022-08-17T17:33:36.137Z,53.09
2022-08-17T17:36:08.463Z,53.47
2022-08-17T17:38:42.010Z,53.81
2022-08-17T17:41:13.015Z,53.73
2022-08-17T17:43:42.420Z,53.94
2022-08-17T17:46:28.399Z,54.00
2022-08-17T17:48:57.104Z,54.38
2022-08-17T17:51:59.697Z,55.10
2022-08-17T17:54:28.056Z,55.01
2022-08-17T17:57:02.775Z,55.22
2022-08-17T17:59:44.110Z,55.14
2022-08-17T18:02:40.796Z,55.30
2022-08-17T18:05:17.174Z,55.87
2022-08-17T18:07:50.067Z,55.89
2022-08-17T18:10:30.289Z,56.29
2022-08-17T18:13:08.656Z,56.07
2022-08-17T18:15:42.016Z,56.66
2022-08-17T18:18:31.031Z,56.73
2022-08-17T18:21:05.802Z,56.72
2022-08-17T18:23:33.762Z,56.73
2022-08-17T18:26:02.798Z,57.18
2022-08-17T18:28:32.127Z,57.00
2022-08-17T18:31:14.068Z,57.08
2022-08-17T18:33:43.545Z,57.21
2022-08-17T18:36:12.051Z,57.10
2022-08-17T18:38:41.906Z,57.20
2022-08-17T18:41:23.284Z,57.57
2022-08-17T18:44:01.253Z,57.85
2022-08-17T18:46:36.766Z,58.08
2022-08-17T18:49:08.450Z,58.31
2022-08-17T18:51:40.467Z,58.58
2022-08-17T18:54:19.546Z,58.43
2022-08-17T18:56:52.827Z,59.06
2022-08-17T18:59:27.799Z,59.29
2022-08-17T19:02:24.228Z,59.35
2022-08-17T19:05:02.932Z,59.18
2022-08-17T19:07:34.061Z,59.59
2022-08-17T19:10:08.492Z,60.00
2022-08-17T19:12:40.495Z,60.24
2022-08-17T19:15:10.328Z,59.76
2022-08-17T19:17:44.888Z,60.10
2022-08-17T19:20:17.594Z,60.36
2022-08-17T19:23:01.428Z,60.21
2022-08-17T19:25:32.871Z,60.34
2022-08-17T19:28:05.164Z,60.79
2022-08-17T19:30:50.359Z,61.08
2022-08-17T19:33:19.836Z,61.46
2022-08-17T19:35:53.163Z,61.48
2022-08-17T19:38:28.342Z,61.70
2022-08-17T19:41:04.568Z,61.88
2022-08-17T19:44:07.800Z,62.04
2022-08-17T19:46:48.789Z,62.30
2022-08-17T19:49:32.964Z,62.28
2022-08-17T19:52:20.340Z,62.72
2022-08-17T19:54:55.515Z,62.59
2022-08-17T19:57:43.561Z,62.73
2022-08-17T20:00:13.371Z,62.91
2022-08-17T20:02:47.431Z,62.93
2022-08-17T20:05:22.841Z,63.21
2022-08-17T20:07:55.240Z,63.09
2022-08-17T20:10:30.471Z,63.36
2022-08-17T20:13:04.397Z,63.83
2022-08-17T20:15:35.692Z,64.19
2022-08-17T20:18:07.116Z,64.35
2022-08-17T20:20:46.791Z,63.92
2022-08-17T20:23:38.730Z,63.88
2022-08-17T20:26:18.495Z,63.90
2022-08-17T20:29:37.638Z,64.05
2022-08-17T20:32:26.230Z,64.52
2022-08-17T20:35:20.254Z,64.93
2022-08-17T20:38:02.563Z,64.98
2022-08-17T20:40:33.704Z,64.77
2022-08-17T20:43:40.098Z,64.95
2022-08-17T20:46:33.010Z,64.67
2022-08-17T20:49:15.047Z,64.73
2022-08-17T20:52:00.684Z,64.88
2022-08-17T20:54:49.747Z,65.20
2022-08-17T20:57:48.435Z,65.10
2022-08-17T21:00:40.839Z,65.55
2022-08-17T21:03:50.657Z,65.71
2022-08-17T21:06:23.233Z,65.62
2022-08-17T21:09:07.143Z,66.14
2022-08-17T21:12:06.152Z,66.39
2022-08-17T21:14:56.339Z,66.33
2022-08-17T21:17:41.782Z,66.09
2022-08-17T21:20:23.538Z,67.04
2022-08-17T21:22:59.380Z,67.33
2022-08-17T21:25:42.966Z,67.92
2022-08-17T21:28:17.293Z,68.40
2022-08-17T21:30:52.052Z,68.88
2022-08-17T21:33:25.286Z,69.19
2022-08-17T21:35:58.538Z,69.78
2022-08-17T21:38:35.362Z,69.69
2022-08-17T21:41:03.089Z,69.82
2022-08-17T21:43:35.433Z,69.81
2022-08-17T21:46:05.117Z,70.29
2022-08-17T21:48:41.561Z,70.53
2022-08-17T21:51:12.127Z,70.40
2022-08-17T21:53:44.464Z,70.04
2022-08-17T21:56:14.243Z,70.50
2022-08-17T21:58:48.609Z,70.57
2022-08-17T22:01:27.008Z,70.66
2022-08-17T22:03:58.454Z,70.93
2022-08-17T22:06:29.894Z,70.53
2022-08-17T22:09:05.343Z,71.30
2022-08-17T22:11:34.355Z,71.32
2022-08-17T22:14:05.844Z,71.79
2022-08-17T22:16:34.053Z,71.37
2022-08-17T22:19:01.887Z,72.02
2022-08-17T22:21:29.772Z,71.78
2022-08-17T22:24:06.159Z,71.97
2022-08-17T22:27:03.534Z,71.92
2022-08-17T22:29:54.344Z,72.13
2022-08-17T22:32:38.832Z,72.78
2022-08-17T22:35:28.719Z,72.09
2022-08-17T22:37:56.709Z,73.13
2022-08-17T22:40:30.649Z,73.20
2022-08-17T22:42:59.635Z,73.15
2022-08-17T22:45:29.933Z,72.98
2022-08-17T22:47:58.685Z,73.58
2022-08-17T22:50:29.039Z,73.42
2022-08-17T22:53:17.211Z,73.31
2022-08-17T22:56:10.270Z,74.12
2022-08-17T22:59:01.938Z,73.98
2022-08-17T23:01:33.323Z,73.64
2022-08-17T23:04:04.015Z,73.81
2022-08-17T23:06:33.914Z,73.81
2022-08-17T23:09:03.816Z,73.65
2022-08-17T23:11:36.774Z,73.90
2022-08-17T23:14:19.229Z,74.15
2022-08-17T23:16:50.263Z,74.13
2022-08-17T23:19:20.635Z,73.81
2022-08-17T23:21:49.131Z,73.65
2022-08-17T23:24:20.869Z,73.59
2022-08-17T23:26:48.634Z,73.61
2022-08-17T23:29:16.542Z,73.96
2022-08-17T23:31:44.240Z,73.95
2022-08-17T23:34:14.890Z,73.22
2022-08-17T23:36:45.310Z,73.37
2022-08-17T23:39:13.311Z,73.49
2022-08-17T23:41:41.945Z,73.29
2022-08-17T23:44:09.658Z,73.40
2022-08-17T23:46:37.296Z,73.77
2022-08-17T23:49:06.581Z,73.72
2022-08-17T23:51:38.762Z,73.75
2022-08-17T23:54:12.572Z,73.59
2022-08-17T23:56:45.463Z,73.59
2022-08-17T23:59:13.493Z,73.99
